createdAt,value
2017-09-09T00:01:36.781Z,96866.07
2017-09-09T00:04:04.302Z,96854.52
2017-09-09T00:06:31.819Z,96853.98
2017-09-09T00:08:59.331Z,96854.01
2017-09-09T00:11:26.840Z,96843.41
2017-09-09T00:13:54.340Z,96840.51
2017-09-09T00:16:21.859Z,96836.06
2017-09-09T00:18:49.396Z,96837.43
2017-09-09T00:21:16.896Z,96823.77
2017-09-09T00:23:44.402Z,96823.98
2017-09-09T00:26:11.901Z,96817.43
2017-09-09T00:28:39.454Z,96816.58
2017-09-09T00:31:06.970Z,96816.75
2017-09-09T00:33:34.477Z,96811.98
2017-09-09T00:36:02.008Z,96805.79
2017-09-09T00:38:29.517Z,96806.05
2017-09-09T00:40:57.023Z,96792.31
2017-09-09T00:43:24.544Z,96787.88
2017-09-09T00:45:52.051Z,96786.20
2017-09-09T00:48:19.564Z,96785.63
2017-09-09T00:50:47.087Z,96787.36
2017-09-09T00:53:14.598Z,96788.89
2017-09-09T00:55:42.103Z,96779.45
2017-09-09T00:58:09.628Z,96767.25
2017-09-09T01:00:37.150Z,96763.52
2017-09-09T01:03:04.665Z,96766.79
2017-09-09T01:05:32.225Z,96767.52
2017-09-09T01:07:59.811Z,96767.55
2017-09-09T01:10:27.306Z,96770.28
2017-09-09T01:12:54.830Z,96770.30
2017-09-09T01:15:22.367Z,96755.86
2017-09-09T01:17:49.877Z,96759.48
2017-09-09T01:20:17.391Z,96747.32
2017-09-09T01:22:44.900Z,96741.11
2017-09-09T01:25:12.419Z,96735.33
2017-09-09T01:27:39.931Z,96731.81
2017-09-09T01:30:07.461Z,96740.61
2017-09-09T01:32:34.967Z,96732.35
2017-09-09T01:35:02.462Z,96721.94
2017-09-09T01:37:29.971Z,96716.77
2017-09-09T01:39:57.487Z,96720.52
2017-09-09T01:42:24.992Z,96710.28
2017-09-09T01:44:52.506Z,96706.11
2017-09-09T01:47:20.012Z,96704.30
2017-09-09T01:49:47.529Z,96704.42
2017-09-09T01:52:15.022Z,96699.92
2017-09-09T01:54:42.528Z,96698.89
2017-09-09T01:57:10.044Z,96689.39
2017-09-09T01:59:37.551Z,96687.09
2017-09-09T02:02:05.118Z,96683.03
2017-09-09T02:04:32.623Z,96682.97
2017-09-09T02:07:00.119Z,96674.39
2017-09-09T02:09:27.646Z,96675.97
2017-09-09T02:11:55.153Z,96681.28
2017-09-09T02:14:22.654Z,96684.45
2017-09-09T02:16:50.154Z,96678.68
2017-09-09T02:19:17.694Z,96678.70
2017-09-09T02:21:45.194Z,96672.76
2017-09-09T02:24:12.764Z,96668.65
2017-09-09T02:26:40.270Z,96677.69
2017-09-09T02:29:07.770Z,96673.58
2017-09-09T02:31:35.283Z,96672.94
2017-09-09T02:34:02.793Z,96674.15
2017-09-09T02:36:30.311Z,96670.65
2017-09-09T02:38:57.820Z,96665.53
2017-09-09T02:41:25.328Z,96656.30
2017-09-09T02:43:52.829Z,96654.70
2017-09-09T02:46:20.336Z,96657.88
2017-09-09T02:48:47.869Z,96654.19
2017-09-09T02:51:15.378Z,96649.22
2017-09-09T02:53:42.887Z,96654.03
2017-09-09T02:56:10.392Z,96648.52
2017-09-09T02:58:37.896Z,96650.57
2017-09-09T03:01:05.393Z,96642.43
2017-09-09T03:03:32.907Z,96646.23
2017-09-09T03:06:00.416Z,96646.01
2017-09-09T03:08:27.934Z,96644.84
2017-09-09T03:10:55.432Z,96648.17
2017-09-09T03:13:22.947Z,96641.56
2017-09-09T03:15:50.460Z,96638.31
2017-09-09T03:18:17.972Z,96636.77
2017-09-09T03:20:45.494Z,96629.95
2017-09-09T03:23:13.019Z,96623.13
2017-09-09T03:25:40.512Z,96625.31
2017-09-09T03:28:08.020Z,96613.03
2017-09-09T03:30:35.547Z,96610.31
2017-09-09T03:33:03.051Z,96612.77
2017-09-09T03:35:30.547Z,96603.06
2017-09-09T03:37:58.046Z,96605.12
2017-09-09T03:40:25.555Z,96606.33
2017-09-09T03:42:53.075Z,96596.86
2017-09-09T03:45:20.583Z,96589.43
2017-09-09T03:47:48.084Z,96585.41
2017-09-09T03:50:15.586Z,96585.45
2017-09-09T03:52:43.131Z,96581.80
2017-09-09T03:55:10.658Z,96586.01
2017-09-09T03:57:38.159Z,96584.45
2017-09-09T04:00:05.664Z,96566.90
2017-09-09T04:02:33.178Z,96573.70
2017-09-09T04:05:00.678Z,96574.13
2017-09-09T04:07:28.184Z,96566.22
2017-09-09T04:09:55.690Z,96563.00
2017-09-09T04:12:23.222Z,96558.55
2017-09-09T04:14:50.736Z,96554.67
2017-09-09T04:17:18.240Z,96551.73
2017-09-09T04:19:45.869Z,96553.94
2017-09-09T04:22:13.369Z,96553.44
2017-09-09T04:24:40.879Z,96528.77
2017-09-09T04:27:08.379Z,96537.98
2017-09-09T04:29:35.927Z,96531.94
2017-09-09T04:32:03.442Z,96531.83
2017-09-09T04:34:30.969Z,96543.53
2017-09-09T04:36:58.468Z,96545.80
2017-09-09T04:39:26.004Z,96534.72
2017-09-09T04:41:53.513Z,96547.18
2017-09-09T04:44:21.033Z,96534.33
2017-09-09T04:46:48.539Z,96536.55
2017-09-09T04:49:16.047Z,96537.27
2017-09-09T04:51:43.561Z,96536.88
2017-09-09T04:54:11.072Z,96535.17
2017-09-09T04:56:38.585Z,96534.22
2017-09-09T04:59:06.094Z,96528.25
2017-09-09T05:01:33.615Z,96531.28
2017-09-09T05:04:01.128Z,96532.69
2017-09-09T05:06:28.644Z,96532.92
2017-09-09T05:08:56.151Z,96533.42
2017-09-09T05:11:23.684Z,96528.92
2017-09-09T05:13:51.191Z,96527.67
2017-09-09T05:16:18.740Z,96530.17
2017-09-09T05:18:46.242Z,96531.17
2017-09-09T05:21:13.870Z,96523.88
2017-09-09T05:23:41.400Z,96532.48
2017-09-09T05:26:08.900Z,96533.45
2017-09-09T05:28:36.435Z,96522.39
2017-09-09T05:31:03.956Z,96535.36
2017-09-09T05:33:31.459Z,96529.44
2017-09-09T05:35:58.985Z,96522.73
2017-09-09T05:38:26.492Z,96523.92
2017-09-09T05:40:54.025Z,96524.15
2017-09-09T05:43:21.541Z,96531.08
2017-09-09T05:45:49.063Z,96540.70
2017-09-09T05:48:16.574Z,96537.20
2017-09-09T05:50:44.105Z,96539.03
2017-09-09T05:53:11.609Z,96540.14
2017-09-09T05:55:39.118Z,96535.19
2017-09-09T05:58:06.621Z,96536.59
2017-09-09T06:00:34.132Z,96533.33
2017-09-09T06:03:01.646Z,96528.02
2017-09-09T06:05:29.205Z,96531.56
2017-09-09T06:07:56.708Z,96532.02
2017-09-09T06:10:24.223Z,96536.77
2017-09-09T06:12:51.734Z,96534.95
2017-09-09T06:15:19.254Z,96534.84
2017-09-09T06:17:46.781Z,96530.88
2017-09-09T06:20:14.310Z,96532.52
2017-09-09T06:22:41.822Z,96527.92
2017-09-09T06:25:13.927Z,96529.02
2017-09-09T06:27:41.467Z,96521.18
2017-09-09T06:30:09.031Z,96522.44
2017-09-09T06:32:36.544Z,96536.72
2017-09-09T06:35:04.062Z,96522.83
2017-09-09T06:37:31.586Z,96528.53
2017-09-09T06:39:59.103Z,96530.21
2017-09-09T06:42:26.652Z,96530.46
2017-09-09T06:44:54.172Z,96528.59
2017-09-09T06:47:21.701Z,96532.45
2017-09-09T06:49:49.247Z,96528.30
2017-09-09T06:52:18.206Z,96529.92
2017-09-09T06:54:45.755Z,96545.18
2017-09-09T06:57:13.284Z,96548.27
2017-09-09T06:59:40.957Z,96555.78
2017-09-09T07:02:08.617Z,96556.91
2017-09-09T07:04:36.128Z,96561.24
2017-09-09T07:07:03.643Z,96560.48
2017-09-09T07:09:31.191Z,96555.59
2017-09-09T07:11:58.866Z,96562.25
2017-09-09T07:14:26.374Z,96571.90
2017-09-09T07:16:53.889Z,96570.81
2017-09-09T07:19:21.447Z,96573.86
2017-09-09T07:21:48.964Z,96585.16
2017-09-09T07:24:16.502Z,96572.17
2017-09-09T07:26:44.027Z,96581.66
2017-09-09T07:29:11.531Z,96596.60
2017-09-09T07:31:39.046Z,96598.47
2017-09-09T07:34:06.559Z,96607.44
2017-09-09T07:36:34.071Z,96609.44
2017-09-09T07:39:01.624Z,96609.26
2017-09-09T07:41:29.163Z,96610.53
2017-09-09T07:43:56.745Z,96618.31
2017-09-09T07:46:24.263Z,96615.84
2017-09-09T07:48:51.767Z,96622.39
2017-09-09T07:51:19.296Z,96621.14
2017-09-09T07:53:46.791Z,96618.86
2017-09-09T07:56:14.320Z,96617.65
2017-09-09T07:58:41.844Z,96620.55
2017-09-09T08:01:09.354Z,96608.58
2017-09-09T08:03:36.872Z,96612.59
2017-09-09T08:06:04.395Z,96610.78
2017-09-09T08:08:31.899Z,96613.11
2017-09-09T08:10:59.407Z,96616.78
2017-09-09T08:13:26.919Z,96604.30
2017-09-09T08:15:54.464Z,96613.47
2017-09-09T08:18:21.984Z,96611.52
2017-09-09T08:20:49.493Z,96613.69
2017-09-09T08:23:17.034Z,96619.21
2017-09-09T08:25:44.675Z,96626.19
2017-09-09T08:28:12.179Z,96640.92
2017-09-09T08:30:39.694Z,96644.62
2017-09-09T08:33:07.209Z,96651.12
2017-09-09T08:35:34.797Z,96648.69
2017-09-09T08:38:02.321Z,96658.11
2017-09-09T08:40:29.871Z,96652.80
2017-09-09T08:42:57.406Z,96655.81
2017-09-09T08:45:24.925Z,96672.70
2017-09-09T08:47:52.447Z,96671.17
2017-09-09T08:50:19.966Z,96671.13
2017-09-09T08:52:47.487Z,96664.02
2017-09-09T08:55:15.013Z,96671.56
2017-09-09T08:57:42.536Z,96690.01
2017-09-09T09:00:10.040Z,96682.14
2017-09-09T09:02:37.576Z,96693.31
2017-09-09T09:05:05.120Z,96706.03
2017-09-09T09:07:32.639Z,96691.29
2017-09-09T09:10:00.152Z,96700.41
2017-09-09T09:12:27.670Z,96706.14
2017-09-09T09:14:55.175Z,96711.41
2017-09-09T09:17:22.703Z,96718.11
2017-09-09T09:19:50.219Z,96726.83
2017-09-09T09:22:17.714Z,96727.92
2017-09-09T09:24:45.236Z,96727.75
2017-09-09T09:27:12.771Z,96718.41
2017-09-09T09:29:40.296Z,96715.65
2017-09-09T09:32:07.816Z,96705.66
2017-09-09T09:34:35.340Z,96711.68
2017-09-09T09:37:02.851Z,96706.25
2017-09-09T09:39:30.400Z,96696.59
2017-09-09T09:41:57.941Z,96701.44
2017-09-09T09:44:25.456Z,96702.25
2017-09-09T09:46:52.991Z,96704.48
2017-09-09T09:49:20.496Z,96715.01
2017-09-09T09:51:48.011Z,96712.14
2017-09-09T09:54:15.528Z,96704.65
2017-09-09T09:56:43.031Z,96709.77
2017-09-09T09:59:10.938Z,96709.58
2017-09-09T10:01:38.448Z,96704.80
2017-09-09T10:04:05.963Z,96727.72
2017-09-09T10:06:33.492Z,96720.25
2017-09-09T10:09:01.015Z,96713.88
2017-09-09T10:11:28.582Z,96717.56
2017-09-09T10:13:56.135Z,96710.04
2017-09-09T10:16:23.694Z,96720.67
2017-09-09T10:18:51.232Z,96716.20
2017-09-09T10:21:18.856Z,96722.14
2017-09-09T10:23:46.354Z,96707.57
2017-09-09T10:26:13.864Z,96711.39
2017-09-09T10:28:41.399Z,96712.03
2017-09-09T10:31:08.951Z,96702.51
2017-09-09T10:33:36.473Z,96699.94
2017-09-09T10:36:04.093Z,96711.64
2017-09-09T10:38:31.609Z,96726.89
2017-09-09T10:40:59.131Z,96714.81
2017-09-09T10:43:26.629Z,96699.64
2017-09-09T10:45:54.130Z,96699.50
2017-09-09T10:48:21.656Z,96699.97
2017-09-09T10:50:49.183Z,96695.00
2017-09-09T10:53:16.731Z,96695.88
2017-09-09T10:55:44.426Z,96690.52
2017-09-09T10:58:11.928Z,96684.52
2017-09-09T11:00:39.452Z,96682.45
2017-09-09T11:03:06.975Z,96673.09
2017-09-09T11:05:34.488Z,96686.24
2017-09-09T11:08:01.996Z,96676.08
2017-09-09T11:10:29.507Z,96663.05
2017-09-09T11:12:57.041Z,96666.66
2017-09-09T11:15:24.570Z,96660.84
2017-09-09T11:17:52.099Z,96653.88
2017-09-09T11:20:19.623Z,96652.19
2017-09-09T11:22:47.154Z,96649.38
2017-09-09T11:25:14.669Z,96650.23
2017-09-09T11:27:42.194Z,96650.05
2017-09-09T11:30:09.690Z,96659.46
2017-09-09T11:32:37.190Z,96657.31
2017-09-09T11:35:04.716Z,96653.94
2017-09-09T11:37:33.115Z,96651.77
2017-09-09T11:40:00.637Z,96644.74
2017-09-09T11:42:28.351Z,96645.17
2017-09-09T11:44:55.876Z,96653.20
2017-09-09T11:47:23.401Z,96663.44
2017-09-09T11:49:50.914Z,96667.12
2017-09-09T11:52:18.472Z,96673.62
2017-09-09T11:54:45.979Z,96670.81
2017-09-09T11:57:13.512Z,96674.47
2017-09-09T11:59:41.051Z,96668.66
2017-09-09T12:02:08.585Z,96670.78
2017-09-09T12:04:36.087Z,96670.28
2017-09-09T12:07:03.600Z,96669.25
2017-09-09T12:09:31.109Z,96671.64
2017-09-09T12:11:58.603Z,96674.61
2017-09-09T12:14:26.132Z,96678.80
2017-09-09T12:16:53.731Z,96671.44
2017-09-09T12:19:21.244Z,96671.31
2017-09-09T12:21:48.749Z,96680.66
2017-09-09T12:24:16.593Z,96677.73
2017-09-09T12:26:44.098Z,96676.05
2017-09-09T12:29:11.952Z,96676.54
2017-09-09T12:31:39.481Z,96673.90
2017-09-09T12:34:07.135Z,96683.45
2017-09-09T12:36:34.666Z,96687.59
2017-09-09T12:39:02.180Z,96692.45
2017-09-09T12:41:29.687Z,96696.88
2017-09-09T12:43:57.212Z,96700.64
2017-09-09T12:46:24.762Z,96707.54
2017-09-09T12:48:52.286Z,96694.25
2017-09-09T12:51:19.792Z,96691.61
2017-09-09T12:53:47.316Z,96679.44
2017-09-09T12:56:14.849Z,96674.42
2017-09-09T12:58:42.386Z,96658.09
2017-09-09T13:01:09.890Z,96653.08
2017-09-09T13:03:37.398Z,96645.67
2017-09-09T13:06:04.908Z,96638.75
2017-09-09T13:08:32.446Z,96633.63
2017-09-09T13:10:59.973Z,96621.84
2017-09-09T13:13:27.492Z,96630.11
2017-09-09T13:15:55.005Z,96630.28
2017-09-09T13:18:22.516Z,96634.20
2017-09-09T13:20:50.031Z,96634.16
2017-09-09T13:23:17.557Z,96632.26
2017-09-09T13:25:45.086Z,96635.36
2017-09-09T13:28:12.596Z,96642.70
2017-09-09T13:30:40.143Z,96654.10
2017-09-09T13:33:07.695Z,96653.36
2017-09-09T13:35:35.207Z,96656.88
2017-09-09T13:38:02.748Z,96659.75
2017-09-09T13:40:30.295Z,96658.36
2017-09-09T13:42:57.848Z,96658.20
2017-09-09T13:45:25.367Z,96661.36
2017-09-09T13:47:52.900Z,96660.59
2017-09-09T13:50:20.427Z,96665.78
2017-09-09T13:52:47.943Z,96663.75
2017-09-09T13:55:15.443Z,96666.19
2017-09-09T13:57:42.997Z,96660.13
2017-09-09T14:00:10.504Z,96660.41
2017-09-09T14:02:38.026Z,96659.62
2017-09-09T14:05:05.533Z,96652.32
2017-09-09T14:07:33.047Z,96660.36
2017-09-09T14:10:00.567Z,96675.41
2017-09-09T14:12:28.087Z,96671.80
2017-09-09T14:14:55.595Z,96676.14
2017-09-09T14:17:23.125Z,96678.05
2017-09-09T14:19:50.642Z,96680.14
2017-09-09T14:22:18.159Z,96682.53
2017-09-09T14:24:45.660Z,96677.30
2017-09-09T14:27:13.171Z,96688.98
2017-09-09T14:29:40.695Z,96680.66
2017-09-09T14:32:08.199Z,96688.28
2017-09-09T14:34:35.709Z,96679.11
2017-09-09T14:37:03.238Z,96683.83
2017-09-09T14:39:30.883Z,96684.24
2017-09-09T14:41:58.398Z,96676.93
2017-09-09T14:44:25.899Z,96681.09
2017-09-09T14:46:53.560Z,96684.02
2017-09-09T14:49:21.080Z,96673.05
2017-09-09T14:51:48.592Z,96674.73
2017-09-09T14:54:16.113Z,96681.95
2017-09-09T14:56:43.619Z,96673.31
2017-09-09T14:59:11.130Z,96679.84
2017-09-09T15:01:38.646Z,96676.06
2017-09-09T15:04:06.168Z,96674.77
2017-09-09T15:06:33.676Z,96665.95
2017-09-09T15:09:01.195Z,96672.75
2017-09-09T15:11:28.715Z,96672.05
2017-09-09T15:13:56.262Z,96670.92
2017-09-09T15:16:23.784Z,96674.97
2017-09-09T15:18:51.323Z,96675.15
2017-09-09T15:21:18.847Z,96677.16
2017-09-09T15:23:46.351Z,96684.59
2017-09-09T15:26:13.908Z,96680.19
2017-09-09T15:28:41.435Z,96678.36
2017-09-09T15:31:08.948Z,96680.96
2017-09-09T15:33:36.468Z,96682.24
2017-09-09T15:36:03.976Z,96683.59
2017-09-09T15:38:31.523Z,96682.06
2017-09-09T15:40:59.026Z,96687.98
2017-09-09T15:43:26.551Z,96684.03
2017-09-09T15:45:54.083Z,96690.36
2017-09-09T15:48:21.625Z,96680.50
2017-09-09T15:50:49.126Z,96685.77
2017-09-09T15:53:16.635Z,96672.45
2017-09-09T15:55:44.198Z,96671.47
2017-09-09T15:58:11.803Z,96681.82
2017-09-09T16:00:39.352Z,96674.08
2017-09-09T16:03:06.878Z,96672.64
2017-09-09T16:05:34.411Z,96676.52
2017-09-09T16:08:01.931Z,96682.31
2017-09-09T16:10:29.468Z,96681.33
2017-09-09T16:12:56.974Z,96676.39
2017-09-09T16:15:24.476Z,96677.20
2017-09-09T16:17:51.980Z,96678.42
2017-09-09T16:20:19.499Z,96678.94
2017-09-09T16:22:47.025Z,96686.08
2017-09-09T16:25:14.552Z,96683.45
2017-09-09T16:27:42.055Z,96680.13
2017-09-09T16:30:09.556Z,96686.13
2017-09-09T16:32:37.578Z,96678.34
2017-09-09T16:35:05.078Z,96679.49
2017-09-09T16:37:32.601Z,96678.67
2017-09-09T16:40:00.111Z,96691.67
2017-09-09T16:42:27.615Z,96682.69
2017-09-09T16:44:55.142Z,96681.58
2017-09-09T16:47:22.651Z,96699.33
2017-09-09T16:49:50.181Z,96715.95
2017-09-09T16:52:17.708Z,96703.09
2017-09-09T16:54:45.211Z,96715.95
2017-09-09T16:57:12.747Z,96720.71
2017-09-09T16:59:40.270Z,96721.59
2017-09-09T17:02:07.815Z,96724.03
2017-09-09T17:04:35.339Z,96727.15
2017-09-09T17:07:02.870Z,96725.38
2017-09-09T17:09:30.443Z,96726.28
2017-09-09T17:11:57.988Z,96729.09
2017-09-09T17:14:25.565Z,96726.48
2017-09-09T17:16:53.078Z,96735.03
2017-09-09T17:19:20.601Z,96726.84
2017-09-09T17:21:48.113Z,96726.83
2017-09-09T17:24:15.703Z,96723.33
2017-09-09T17:26:43.209Z,96728.88
2017-09-09T17:29:10.712Z,96728.70
2017-09-09T17:31:38.212Z,96733.47
2017-09-09T17:34:05.744Z,96730.41
2017-09-09T17:36:33.252Z,96729.72
2017-09-09T17:39:00.776Z,96729.55
2017-09-09T17:41:28.308Z,96733.03
2017-09-09T17:43:55.813Z,96739.16
2017-09-09T17:46:23.336Z,96738.86
2017-09-09T17:48:50.866Z,96732.47
2017-09-09T17:51:18.386Z,96739.59
2017-09-09T17:53:45.901Z,96741.09
2017-09-09T17:56:13.419Z,96747.05
2017-09-09T17:58:41.066Z,96746.19
2017-09-09T18:01:08.580Z,96752.95
2017-09-09T18:03:36.124Z,96750.16
2017-09-09T18:06:03.627Z,96747.91
2017-09-09T18:08:31.134Z,96757.55
2017-09-09T18:10:58.663Z,96756.23
2017-09-09T18:13:26.203Z,96754.37
2017-09-09T18:15:53.723Z,96759.95
2017-09-09T18:18:21.240Z,96762.62
2017-09-09T18:20:48.755Z,96757.93
2017-09-09T18:23:16.277Z,96771.00
2017-09-09T18:25:43.795Z,96770.57
2017-09-09T18:28:11.301Z,96777.44
2017-09-09T18:30:38.830Z,96778.48
2017-09-09T18:33:06.396Z,96785.59
2017-09-09T18:35:33.899Z,96783.24
2017-09-09T18:38:01.432Z,96783.50
2017-09-09T18:40:28.991Z,96790.52
2017-09-09T18:42:56.512Z,96783.66
2017-09-09T18:45:24.024Z,96776.18
2017-09-09T18:47:51.544Z,96779.41
2017-09-09T18:50:19.080Z,96786.02
2017-09-09T18:52:46.583Z,96791.44
2017-09-09T18:55:14.129Z,96784.53
2017-09-09T18:57:41.640Z,96792.80
2017-09-09T19:00:09.155Z,96799.19
2017-09-09T19:02:36.656Z,96807.56
2017-09-09T19:05:04.180Z,96796.45
2017-09-09T19:07:31.797Z,96804.47
2017-09-09T19:09:59.315Z,96798.11
2017-09-09T19:12:26.842Z,96802.40
2017-09-09T19:14:54.513Z,96807.00
2017-09-09T19:17:22.024Z,96807.03
2017-09-09T19:19:49.566Z,96809.90
2017-09-09T19:22:17.138Z,96812.07
2017-09-09T19:24:44.688Z,96811.55
2017-09-09T19:27:12.192Z,96831.00
2017-09-09T19:29:39.721Z,96834.34
2017-09-09T19:32:07.245Z,96838.49
2017-09-09T19:34:34.886Z,96837.58
2017-09-09T19:37:02.398Z,96834.78
2017-09-09T19:39:29.930Z,96840.13
2017-09-09T19:41:57.525Z,96831.36
2017-09-09T19:44:25.033Z,96829.76
2017-09-09T19:46:52.591Z,96822.08
2017-09-09T19:49:20.102Z,96831.19
2017-09-09T19:51:47.630Z,96832.31
2017-09-09T19:54:15.168Z,96829.28
2017-09-09T19:56:42.667Z,96825.08
2017-09-09T19:59:10.213Z,96826.84
2017-09-09T20:01:37.723Z,96829.61
2017-09-09T20:04:05.227Z,96829.70
2017-09-09T20:06:32.769Z,96830.00
2017-09-09T20:09:00.351Z,96829.28
2017-09-09T20:11:27.899Z,96834.52
2017-09-09T20:13:55.419Z,96837.14
2017-09-09T20:16:22.920Z,96838.63
2017-09-09T20:18:50.438Z,96844.50
2017-09-09T20:21:17.975Z,96844.90
2017-09-09T20:23:45.484Z,96842.60
2017-09-09T20:26:13.030Z,96838.91
2017-09-09T20:28:40.545Z,96838.16
2017-09-09T20:31:08.082Z,96847.24
2017-09-09T20:33:35.602Z,96849.91
2017-09-09T20:36:03.120Z,96853.20
2017-09-09T20:38:30.639Z,96849.27
2017-09-09T20:40:58.176Z,96845.58
2017-09-09T20:43:25.684Z,96851.16
2017-09-09T20:45:53.180Z,96843.16
2017-09-09T20:48:20.711Z,96839.45
2017-09-09T20:50:48.362Z,96838.12
2017-09-09T20:53:15.873Z,96838.55
2017-09-09T20:55:43.384Z,96834.06
2017-09-09T20:58:10.907Z,96828.77
2017-09-09T21:00:38.435Z,96821.38
2017-09-09T21:03:05.951Z,96829.69
2017-09-09T21:05:33.524Z,96832.12
2017-09-09T21:08:01.049Z,96831.91
2017-09-09T21:10:28.568Z,96840.51
2017-09-09T21:12:56.127Z,96859.66
2017-09-09T21:15:23.643Z,96861.27
2017-09-09T21:17:51.155Z,96849.98
2017-09-09T21:20:18.680Z,96848.08
2017-09-09T21:22:46.206Z,96843.97
2017-09-09T21:25:13.920Z,96842.37
2017-09-09T21:27:41.473Z,96836.92
2017-09-09T21:30:09.027Z,96839.08
2017-09-09T21:32:36.531Z,96838.34
2017-09-09T21:35:04.068Z,96836.66
2017-09-09T21:37:31.583Z,96835.03
2017-09-09T21:39:59.131Z,96840.60
2017-09-09T21:42:26.636Z,96834.25
2017-09-09T21:44:54.171Z,96833.55
2017-09-09T21:47:21.712Z,96840.69
2017-09-09T21:49:49.227Z,96834.42
2017-09-09T21:52:16.767Z,96836.21
2017-09-09T21:54:44.271Z,96836.50
2017-09-09T21:57:11.788Z,96841.08
2017-09-09T21:59:39.307Z,96846.50
2017-09-09T22:02:06.843Z,96841.47
2017-09-09T22:04:34.355Z,96847.66
2017-09-09T22:07:01.900Z,96853.66
2017-09-09T22:09:29.444Z,96859.59
2017-09-09T22:11:56.960Z,96856.70
2017-09-09T22:14:24.462Z,96854.63
2017-09-09T22:16:51.980Z,96853.22
2017-09-09T22:19:19.484Z,96856.22
2017-09-09T22:21:47.006Z,96848.57
2017-09-09T22:24:14.535Z,96843.47
2017-09-09T22:26:42.036Z,96838.30
2017-09-09T22:29:09.546Z,96837.18
2017-09-09T22:31:37.048Z,96842.94
2017-09-09T22:34:04.551Z,96844.25
2017-09-09T22:36:32.063Z,96841.30
2017-09-09T22:38:59.573Z,96834.56
2017-09-09T22:41:27.081Z,96835.48
2017-09-09T22:43:54.603Z,96847.17
2017-09-09T22:46:22.128Z,96846.17
2017-09-09T22:48:49.687Z,96837.37
2017-09-09T22:51:17.199Z,96834.14
2017-09-09T22:53:44.706Z,96844.19
2017-09-09T22:56:12.227Z,96844.39
2017-09-09T22:58:39.745Z,96841.03
2017-09-09T23:01:07.280Z,96845.98
2017-09-09T23:03:34.792Z,96847.86
2017-09-09T23:06:02.313Z,96844.13
2017-09-09T23:08:29.815Z,96838.91
2017-09-09T23:10:57.362Z,96840.28
2017-09-09T23:13:24.884Z,96840.63
2017-09-09T23:15:52.387Z,96836.50
2017-09-09T23:18:19.895Z,96846.84
2017-09-09T23:20:47.422Z,96848.66
2017-09-09T23:23:14.947Z,96844.91
2017-09-09T23:25:42.467Z,96838.69
2017-09-09T23:28:10.008Z,96838.80
2017-09-09T23:30:37.550Z,96837.39
2017-09-09T23:33:05.070Z,96840.80
2017-09-09T23:35:32.602Z,96839.44
2017-09-09T23:38:00.142Z,96847.01
2017-09-09T23:40:27.655Z,96845.92
2017-09-09T23:42:55.177Z,96837.80
2017-09-09T23:45:22.686Z,96842.97
2017-09-09T23:47:50.219Z,96846.64
2017-09-09T23:50:17.720Z,96850.39
2017-09-09T23:52:45.239Z,96853.03
2017-09-09T23:55:12.759Z,96855.48
2017-09-09T23:57:40.294Z,96862.86
